Time;durP1;ratioP1;P1;durP2;ratioP2;P2;SDS_P1;SDS_P2;PMS_P1;PMS_P2;Temp;Humidity;BMP_temperature;BMP_pressure;BME280_temperature;BME280_humidity;BME280_pressure;Samples;Min_cycle;Max_cycle;Signal;HPM_P1;HPM_P2
2022/08/24 00:01:23;;;;;;;2.05;0.95;;;22.30;69.00;;;;;;4708359;30;20486;-79
2022/08/24 00:03:50;;;;;;;1.60;0.80;;;22.30;69.10;;;;;;4696411;30;20057;-79
2022/08/24 00:06:22;;;;;;;1.67;0.80;;;22.20;69.20;;;;;;4718034;30;20045;-79
2022/08/24 00:08:51;;;;;;;2.05;0.90;;;22.20;69.30;;;;;;4717561;30;20053;-79
2022/08/24 00:11:19;;;;;;;1.77;0.77;;;22.20;69.50;;;;;;4704988;30;20127;-79
2022/08/24 00:13:50;;;;;;;1.98;0.90;;;22.20;69.70;;;;;;4703279;30;20053;-79
2022/08/24 00:16:17;;;;;;;2.92;0.98;;;22.10;69.70;;;;;;4700398;30;20073;-79
2022/08/24 00:18:46;;;;;;;2.78;1.15;;;22.10;69.80;;;;;;4698481;30;20070;-79
2022/08/24 00:21:14;;;;;;;1.50;1.08;;;22.10;70.00;;;;;;4717714;30;20060;-78
2022/08/24 00:23:41;;;;;;;2.00;0.93;;;22.00;70.10;;;;;;4693534;30;20140;-79
2022/08/24 00:26:09;;;;;;;1.83;1.00;;;22.00;70.20;;;;;;4731545;30;20072;-79
2022/08/24 00:28:36;;;;;;;2.38;1.10;;;22.00;71.00;;;;;;4705176;30;20079;-79
2022/08/24 00:31:03;;;;;;;3.80;1.30;;;22.00;70.50;;;;;;4700471;30;20503;-79
2022/08/24 00:33:34;;;;;;;1.80;1.00;;;21.90;70.60;;;;;;4705768;30;20470;-79
2022/08/24 00:36:01;;;;;;;1.45;0.80;;;21.90;70.60;;;;;;4709940;30;20136;-79
2022/08/24 00:38:34;;;;;;;1.83;1.17;;;21.90;70.70;;;;;;4704141;30;20063;-79
2022/08/24 00:41:02;;;;;;;1.85;0.98;;;21.90;70.80;;;;;;4700302;30;20130;-79
2022/08/24 00:43:29;;;;;;;3.28;1.25;;;21.80;70.90;;;;;;4728944;30;20119;-79
2022/08/24 00:46:08;;;;;;;2.47;1.10;;;21.80;71.00;;;;;;4694575;30;20144;-79
2022/08/24 00:48:44;;;;;;;2.08;1.20;;;21.80;71.10;;;;;;4715872;30;20069;-79
2022/08/24 00:51:24;;;;;;;1.80;1.00;;;21.80;71.40;;;;;;4733418;30;20152;-79
2022/08/24 00:54:00;;;;;;;2.10;1.00;;;21.80;71.40;;;;;;4717288;30;20065;-79
2022/08/24 00:56:36;;;;;;;1.60;0.93;;;21.70;71.50;;;;;;4722640;30;20459;-79
2022/08/24 00:59:12;;;;;;;1.80;1.00;;;21.70;71.60;;;;;;4725343;30;20704;-79
2022/08/24 01:01:40;;;;;;;1.70;1.02;;;21.70;71.70;;;;;;4735402;30;20549;-79
2022/08/24 01:04:17;;;;;;;2.42;1.10;;;21.60;71.80;;;;;;4706364;30;20048;-79
2022/08/24 01:06:45;;;;;;;1.52;0.98;;;21.60;72.00;;;;;;4720727;30;20139;-79
2022/08/24 01:09:13;;;;;;;1.90;1.10;;;21.60;72.20;;;;;;4720671;30;20106;-79
2022/08/24 01:11:43;;;;;;;2.42;1.40;;;21.60;72.20;;;;;;4712255;30;20053;-78
2022/08/24 01:14:10;;;;;;;1.95;1.08;;;21.50;72.30;;;;;;4710701;30;20132;-78
2022/08/24 01:19:37;;;;;;;1.83;1.20;;;21.50;72.60;;;;;;4719759;30;20485;-79
2022/08/24 01:22:25;;;;;;;2.88;1.20;;;21.40;72.60;;;;;;4715091;30;20135;-79
2022/08/24 01:24:53;;;;;;;3.47;1.40;;;21.40;72.80;;;;;;4734956;30;20059;-78
2022/08/24 01:27:22;;;;;;;2.95;1.27;;;21.40;72.90;;;;;;4710504;30;20048;-79
2022/08/24 01:29:57;;;;;;;2.20;1.42;;;21.30;72.90;;;;;;4709482;30;20041;-79
2022/08/24 01:32:26;;;;;;;2.25;0.90;;;21.30;73.10;;;;;;4734692;30;20045;-79
2022/08/24 01:34:55;;;;;;;1.83;1.05;;;21.30;73.10;;;;;;4712732;30;20083;-79
2022/08/24 01:37:23;;;;;;;2.22;1.15;;;21.30;73.20;;;;;;4691665;30;20063;-79
2022/08/24 01:39:54;;;;;;;1.77;1.00;;;21.30;73.30;;;;;;4709258;30;20816;-79
2022/08/24 01:42:22;;;;;;;1.63;1.00;;;21.30;73.40;;;;;;4720086;30;20044;-79
2022/08/24 01:44:49;;;;;;;1.98;1.20;;;21.20;73.40;;;;;;4705624;30;20049;-79
2022/08/24 01:47:16;;;;;;;3.33;1.30;;;21.20;73.50;;;;;;4731230;30;20061;-79
2022/08/24 01:49:47;;;;;;;2.03;1.15;;;21.20;73.60;;;;;;4705513;30;20061;-79
2022/08/24 01:52:24;;;;;;;1.73;1.05;;;21.20;73.80;;;;;;4719799;30;20041;-79
2022/08/24 01:54:52;;;;;;;1.70;1.10;;;21.20;74.50;;;;;;4719948;30;20412;-79
2022/08/24 01:57:22;;;;;;;2.15;1.02;;;21.20;73.90;;;;;;4719867;30;20040;-79
2022/08/24 01:59:49;;;;;;;1.75;1.15;;;21.10;73.90;;;;;;4707707;30;20160;-78
2022/08/24 02:02:26;;;;;;;3.95;1.00;;;21.10;74.00;;;;;;4720067;30;20040;-79
2022/08/24 02:04:53;;;;;;;2.55;1.10;;;21.10;74.10;;;;;;4716871;30;20521;-79
2022/08/24 02:07:21;;;;;;;2.45;1.52;;;21.10;74.20;;;;;;4688831;30;20046;-79
2022/08/24 02:09:49;;;;;;;2.35;1.60;;;21.10;74.30;;;;;;4710620;30;20045;-79
2022/08/24 02:12:20;;;;;;;2.58;1.33;;;21.10;74.50;;;;;;4728660;30;20122;-79
2022/08/24 02:14:47;;;;;;;2.30;1.10;;;21.10;74.60;;;;;;4709076;30;20045;-79
2022/08/24 02:17:15;;;;;;;1.70;1.08;;;21.00;74.60;;;;;;4697548;30;20045;-79
2022/08/24 02:19:44;;;;;;;2.05;1.02;;;21.00;74.70;;;;;;4719381;30;20421;-79
2022/08/24 02:22:11;;;;;;;1.83;1.05;;;21.00;74.80;;;;;;4733864;30;20048;-79
2022/08/24 02:24:39;;;;;;;2.65;1.20;;;21.00;74.90;;;;;;4693596;30;20057;-78
2022/08/24 02:27:07;;;;;;;1.88;1.05;;;21.00;74.90;;;;;;4704936;30;20136;-79
2022/08/24 02:29:34;;;;;;;1.85;1.10;;;21.00;74.90;;;;;;4704970;30;20083;-79
2022/08/24 02:32:02;;;;;;;2.38;1.23;;;20.90;75.00;;;;;;4702098;30;20053;-78
2022/08/24 02:34:29;;;;;;;3.03;1.33;;;20.90;75.00;;;;;;4713481;30;20141;-79
2022/08/24 02:36:56;;;;;;;2.42;1.35;;;20.80;75.10;;;;;;4714086;30;20056;-78
2022/08/24 02:39:23;;;;;;;3.90;1.55;;;20.80;75.20;;;;;;4690917;30;20048;-79
2022/08/24 02:41:52;;;;;;;3.40;1.42;;;20.80;75.20;;;;;;4705097;30;20057;-78
2022/08/24 02:44:20;;;;;;;1.88;1.20;;;20.80;75.40;;;;;;4719161;30;20147;-79
2022/08/24 02:46:48;;;;;;;2.45;1.33;;;20.70;75.50;;;;;;4705995;30;20132;-79
2022/08/24 02:49:18;;;;;;;2.10;1.13;;;20.70;75.70;;;;;;4718958;30;20052;-78
2022/08/24 02:51:46;;;;;;;1.80;1.20;;;20.70;75.90;;;;;;4718939;30;20072;-78
2022/08/24 02:54:18;;;;;;;1.75;1.00;;;20.70;75.90;;;;;;4705301;30;20049;-79
2022/08/24 02:56:48;;;;;;;3.03;1.55;;;20.70;75.90;;;;;;4723318;30;20070;-79
2022/08/24 02:59:16;;;;;;;2.85;1.30;;;20.60;76.00;;;;;;4733870;30;20057;-79
2022/08/24 03:01:44;;;;;;;2.72;1.50;;;20.60;76.00;;;;;;4713699;30;20143;-78
2022/08/24 03:04:12;;;;;;;2.15;1.35;;;20.60;76.10;;;;;;4708552;30;20084;-79
2022/08/24 03:06:40;;;;;;;2.00;1.40;;;20.60;76.10;;;;;;4715265;30;20048;-79
2022/08/24 03:09:07;;;;;;;2.72;1.38;;;20.60;76.20;;;;;;4720233;30;20045;-79
2022/08/24 03:11:35;;;;;;;3.30;1.90;;;20.60;76.30;;;;;;4707009;30;20049;-79
2022/08/24 03:14:02;;;;;;;2.65;1.45;;;20.50;76.30;;;;;;4723156;30;20132;-78
2022/08/24 03:16:30;;;;;;;2.65;1.65;;;20.60;76.50;;;;;;4705487;30;20049;-78
2022/08/24 03:18:58;;;;;;;1.95;1.00;;;20.50;76.50;;;;;;4714012;30;20061;-78
2022/08/24 03:21:27;;;;;;;2.42;1.50;;;20.50;76.50;;;;;;4721852;30;20063;-78
2022/08/24 03:23:55;;;;;;;3.15;1.70;;;20.50;76.50;;;;;;4696733;30;20060;-78
2022/08/24 03:26:22;;;;;;;2.55;1.52;;;20.50;76.60;;;;;;4717205;30;20041;-78
2022/08/24 03:28:51;;;;;;;2.42;1.58;;;20.50;77.30;;;;;;4718476;30;20055;-78
2022/08/24 03:31:19;;;;;;;2.72;1.52;;;20.40;76.70;;;;;;4704139;30;20101;-79
2022/08/24 03:33:49;;;;;;;2.60;1.42;;;20.40;76.70;;;;;;4707846;30;20052;-79
2022/08/24 03:36:16;;;;;;;2.72;1.92;;;20.40;76.80;;;;;;4720882;30;20494;-79
2022/08/24 03:38:43;;;;;;;2.55;1.65;;;20.40;76.90;;;;;;4703431;30;20168;-79
2022/08/24 03:41:11;;;;;;;3.28;1.60;;;20.40;76.90;;;;;;4728212;30;20055;-78
2022/08/24 03:43:45;;;;;;;3.20;1.50;;;20.30;77.00;;;;;;4718240;30;20076;-79
2022/08/24 03:46:23;;;;;;;3.63;1.83;;;20.30;77.00;;;;;;4700983;30;20061;-78
2022/08/24 03:48:53;;;;;;;2.78;1.75;;;20.30;77.10;;;;;;4718323;30;20044;-79
2022/08/24 03:51:25;;;;;;;3.03;1.70;;;20.30;77.20;;;;;;4718638;30;20402;-79
2022/08/24 03:53:54;;;;;;;1.98;1.33;;;20.30;77.20;;;;;;4718043;30;20621;-78
2022/08/24 03:56:23;;;;;;;2.65;1.75;;;20.20;77.10;;;;;;4718528;30;20114;-79
2022/08/24 03:58:51;;;;;;;2.20;1.42;;;20.20;77.20;;;;;;4717152;30;20055;-78
2022/08/24 04:01:19;;;;;;;3.83;2.25;;;20.20;77.30;;;;;;4722699;30;20052;-79
2022/08/24 04:03:48;;;;;;;2.83;1.90;;;20.20;77.40;;;;;;4719209;30;20121;-78
2022/08/24 04:06:17;;;;;;;3.50;2.00;;;20.20;77.50;;;;;;4713649;30;20518;-79
2022/08/24 04:08:45;;;;;;;3.55;2.20;;;20.20;77.60;;;;;;4719897;30;20439;-78
2022/08/24 04:11:16;;;;;;;3.33;2.17;;;20.10;77.70;;;;;;4726081;30;20057;-78
2022/08/24 04:13:45;;;;;;;3.08;2.05;;;20.10;77.80;;;;;;4707759;30;20514;-79
2022/08/24 04:16:16;;;;;;;3.95;2.35;;;20.10;77.90;;;;;;4702747;30;20056;-79
2022/08/24 04:18:44;;;;;;;4.05;2.67;;;20.10;77.90;;;;;;4708699;30;20083;-79
2022/08/24 04:21:20;;;;;;;2.40;1.65;;;20.10;78.00;;;;;;4717611;30;20395;-79
2022/08/24 04:23:48;;;;;;;2.55;1.70;;;20.10;78.00;;;;;;4724805;30;20543;-78
2022/08/24 04:26:19;;;;;;;3.55;1.80;;;20.10;78.00;;;;;;4726054;30;20045;-79
2022/08/24 04:29:09;;;;;;;4.40;2.05;;;20.10;78.10;;;;;;4720836;30;20106;-80
2022/08/24 04:31:42;;;;;;;3.05;1.88;;;20.00;78.00;;;;;;4718136;30;20045;-79
2022/08/24 04:34:12;;;;;;;3.20;2.15;;;20.10;78.10;;;;;;4707600;30;20076;-79
2022/08/24 04:36:41;;;;;;;2.65;1.63;;;20.00;78.10;;;;;;4714169;30;20084;-79
2022/08/24 04:39:09;;;;;;;2.63;1.88;;;20.00;78.20;;;;;;4707803;30;20498;-79
2022/08/24 04:41:59;;;;;;;2.58;1.70;;;20.00;78.20;;;;;;4724262;30;20177;-79
2022/08/24 04:44:32;;;;;;;4.07;2.17;;;20.00;78.30;;;;;;4703940;30;20053;-79
2022/08/24 04:47:00;;;;;;;3.03;1.67;;;19.90;78.30;;;;;;4703884;30;20053;-79
2022/08/24 04:49:27;;;;;;;3.20;2.03;;;19.90;78.40;;;;;;4703546;30;20511;-79
2022/08/24 04:51:55;;;;;;;2.42;1.60;;;19.90;78.40;;;;;;4689512;30;20518;-79
2022/08/24 04:54:23;;;;;;;3.03;2.00;;;19.90;78.50;;;;;;4721357;30;20135;-79
2022/08/24 04:57:10;;;;;;;3.55;1.95;;;19.90;78.60;;;;;;4718810;30;20056;-80
2022/08/24 04:59:45;;;;;;;4.38;2.15;;;19.90;78.70;;;;;;4704866;30;20515;-79
2022/08/24 05:02:12;;;;;;;2.67;1.83;;;19.90;78.60;;;;;;4706646;30;20061;-78
2022/08/24 05:04:40;;;;;;;3.03;2.13;;;20.00;78.60;;;;;;4703875;30;20060;-79
2022/08/24 05:07:07;;;;;;;3.20;2.20;;;20.00;78.70;;;;;;4730310;30;20053;-79
2022/08/24 05:09:39;;;;;;;3.65;2.30;;;20.00;78.70;;;;;;4704303;30;20107;-79
2022/08/24 05:12:06;;;;;;;3.40;2.20;;;20.00;78.70;;;;;;4703470;30;20422;-79
2022/08/24 05:14:37;;;;;;;3.88;2.45;;;20.00;78.80;;;;;;4703871;30;20140;-79
2022/08/24 05:17:04;;;;;;;3.47;2.22;;;20.00;78.80;;;;;;4677700;30;20053;-79
2022/08/24 05:19:36;;;;;;;;;;;20.00;78.80;;;;;;4709551;30;20053;-79
2022/08/24 05:22:04;;;;;;;3.53;2.25;;;20.00;78.60;;;;;;4711444;30;19930;-79
2022/08/24 05:24:32;;;;;;;3.20;2.00;;;20.00;78.60;;;;;;4703059;30;20415;-77
2022/08/24 05:26:59;;;;;;;3.42;1.90;;;20.10;79.20;;;;;;4703262;30;20188;-77
2022/08/24 05:29:27;;;;;;;3.08;1.83;;;20.10;78.50;;;;;;4704394;30;20053;-78
2022/08/24 05:31:54;;;;;;;3.10;1.90;;;20.20;78.50;;;;;;4703020;30;20083;-77
2022/08/24 05:34:23;;;;;;;3.83;2.50;;;20.20;78.40;;;;;;4700425;30;20490;-77
2022/08/24 05:36:50;;;;;;;3.60;2.40;;;20.30;78.50;;;;;;4717204;30;20479;-76
2022/08/24 05:39:38;;;;;;;3.75;2.17;;;20.30;78.40;;;;;;4716789;30;20057;-77
2022/08/24 05:42:07;;;;;;;3.28;2.20;;;20.30;78.40;;;;;;4717271;30;20060;-76
2022/08/24 05:44:42;;;;;;;3.70;2.50;;;20.40;78.40;;;;;;4703797;30;20048;-77
2022/08/24 05:47:09;;;;;;;4.35;2.70;;;20.50;78.40;;;;;;4676679;30;20045;-76
2022/08/24 05:49:37;;;;;;;5.38;3.60;;;20.50;78.30;;;;;;4693954;30;20067;-77
2022/08/24 05:52:09;;;;;;;3.65;2.58;;;20.70;78.30;;;;;;4709742;30;20053;-77
2022/08/24 05:54:36;;;;;;;4.50;2.78;;;20.70;78.20;;;;;;4694258;30;20451;-77
2022/08/24 05:57:05;;;;;;;5.13;3.35;;;20.80;78.20;;;;;;4719347;30;20065;-77
2022/08/24 05:59:44;;;;;;;4.05;2.80;;;20.80;78.10;;;;;;4692211;30;20140;-76
2022/08/24 06:02:16;;;;;;;5.65;3.30;;;20.90;78.00;;;;;;4714539;30;20049;-76
2022/08/24 06:04:43;;;;;;;4.78;2.95;;;21.00;77.90;;;;;;4729594;30;20057;-76
2022/08/24 06:07:12;;;;;;;5.03;2.85;;;21.10;77.80;;;;;;4701789;30;20045;-77
2022/08/24 06:09:43;;;;;;;4.38;3.35;;;21.20;77.70;;;;;;4706174;30;20049;-79
2022/08/24 06:12:13;;;;;;;3.97;2.92;;;21.30;77.60;;;;;;4707194;30;20137;-78
2022/08/24 06:14:46;;;;;;;4.47;2.90;;;21.40;77.40;;;;;;4712661;30;20144;-77
2022/08/24 06:17:20;;;;;;;6.10;3.70;;;21.50;77.30;;;;;;4702804;30;20057;-77
2022/08/24 06:19:50;;;;;;;5.70;3.58;;;21.60;77.80;;;;;;4702890;30;20049;-77
2022/08/24 06:22:17;;;;;;;5.80;3.88;;;21.70;77.00;;;;;;4703959;30;20053;-77
2022/08/24 06:27:33;;;;;;;4.65;3.80;;;21.90;76.80;;;;;;4710070;30;20061;-78
2022/08/24 06:30:08;;;;;;;5.63;4.15;;;22.00;76.60;;;;;;4693758;30;20053;-77
2022/08/24 06:33:00;;;;;;;6.18;4.47;;;22.10;76.50;;;;;;4720025;30;20076;-77
2022/08/24 06:35:41;;;;;;;4.60;3.50;;;22.20;76.30;;;;;;4711648;30;20053;-77
2022/08/24 06:38:18;;;;;;;4.82;3.88;;;22.30;76.20;;;;;;4718925;30;20061;-78
2022/08/24 06:40:46;;;;;;;5.22;3.92;;;22.40;76.00;;;;;;4724212;30;20080;-78
2022/08/24 06:43:18;;;;;;;5.05;3.58;;;22.50;75.90;;;;;;4688462;30;20057;-77
2022/08/24 06:45:51;;;;;;;5.30;3.58;;;22.50;75.70;;;;;;4716013;30;20442;-77
2022/08/24 06:48:22;;;;;;;4.13;3.22;;;22.60;75.50;;;;;;4702166;30;20073;-77
2022/08/24 06:50:51;;;;;;;5.32;3.88;;;22.70;75.40;;;;;;4707253;30;20465;-77
2022/08/24 06:53:18;;;;;;;5.45;4.22;;;22.80;75.30;;;;;;4719035;30;20053;-77
2022/08/24 06:55:51;;;;;;;5.70;3.85;;;22.80;75.20;;;;;;4722550;30;20053;-78
2022/08/24 06:58:20;;;;;;;5.28;4.18;;;22.90;75.10;;;;;;4715973;30;20504;-78
2022/08/24 07:00:48;;;;;;;5.03;3.50;;;23.00;74.90;;;;;;4707124;30;20056;-77
2022/08/24 07:03:20;;;;;;;4.20;3.28;;;23.10;74.80;;;;;;4702311;30;20052;-77
2022/08/24 07:05:57;;;;;;;4.75;3.55;;;23.20;74.70;;;;;;4706888;30;20127;-77
2022/08/24 07:08:35;;;;;;;5.43;3.22;;;23.30;74.50;;;;;;4726276;30;20056;-77
2022/08/24 07:11:04;;;;;;;5.95;3.97;;;23.40;74.40;;;;;;4706723;30;20140;-79
2022/08/24 07:13:33;;;;;;;4.88;3.47;;;23.50;74.30;;;;;;4716004;30;20045;-80
2022/08/24 07:16:00;;;;;;;4.55;3.42;;;23.50;74.10;;;;;;4709098;30;20049;-79
2022/08/24 07:18:31;;;;;;;4.07;3.17;;;23.60;74.00;;;;;;4702199;30;20059;-79
2022/08/24 07:21:02;;;;;;;5.95;3.38;;;23.70;73.90;;;;;;4699263;30;20064;-80
2022/08/24 07:23:45;;;;;;;4.97;3.35;;;23.80;73.80;;;;;;4685976;30;20072;-79
2022/08/24 07:26:18;;;;;;;7.20;4.75;;;23.90;73.60;;;;;;4685208;30;20057;-78
2022/08/24 07:28:52;;;;;;;4.57;3.75;;;24.00;73.40;;;;;;4716070;30;20100;-79
2022/08/24 07:31:20;;;;;;;5.05;3.88;;;24.00;73.20;;;;;;4701350;30;20448;-79
2022/08/24 07:34:10;;;;;;;5.43;3.45;;;24.10;73.00;;;;;;4686111;30;20049;-87
2022/08/24 07:36:41;;;;;;;4.75;3.33;;;24.30;72.90;;;;;;4715841;30;20519;-87
2022/08/24 07:39:11;;;;;;;4.05;3.03;;;24.40;72.60;;;;;;4702706;30;20052;-87
2022/08/24 07:41:42;;;;;;;4.25;2.90;;;24.50;72.40;;;;;;4687547;30;20096;-89
2022/08/24 07:44:30;;;;;;;5.40;2.60;;;24.60;72.10;;;;;;4704276;30;20454;-88
2022/08/24 07:46:57;;;;;;;3.85;2.50;;;24.70;71.90;;;;;;4712995;30;20044;-88
2022/08/24 07:49:41;;;;;;;3.78;2.75;;;24.80;71.70;;;;;;4719622;30;20113;-89
2022/08/24 07:52:09;;;;;;;3.78;2.63;;;24.90;71.40;;;;;;4685787;30;20045;-89
2022/08/24 07:54:36;;;;;;;3.38;2.40;;;25.00;71.20;;;;;;4693823;30;20053;-88
2022/08/24 07:57:05;;;;;;;2.85;2.10;;;25.10;71.00;;;;;;4700671;30;20065;-87
2022/08/24 07:59:35;;;;;;;3.08;2.28;;;25.20;70.80;;;;;;4687523;30;20064;-88
2022/08/24 08:02:04;;;;;;;3.35;2.13;;;25.30;70.60;;;;;;4692474;30;20595;-91
2022/08/24 08:04:31;;;;;;;4.47;2.03;;;25.50;70.30;;;;;;4702364;30;20049;-90
2022/08/24 08:07:02;;;;;;;2.95;1.90;;;25.60;69.80;;;;;;4671643;30;20107;-90
2022/08/24 08:09:38;;;;;;;2.58;1.50;;;25.70;69.50;;;;;;4685712;30;20461;-80
2022/08/24 08:12:07;;;;;;;1.90;1.30;;;25.80;69.20;;;;;;4700637;30;20128;-80
2022/08/24 08:14:38;;;;;;;2.35;1.50;;;25.90;69.00;;;;;;4701733;30;20076;-80
2022/08/24 08:17:06;;;;;;;3.95;1.80;;;26.00;69.40;;;;;;4708536;30;20507;-80
2022/08/24 08:19:34;;;;;;;2.58;1.67;;;26.10;68.30;;;;;;4690865;30;20053;-80
2022/08/24 08:25:07;;;;;;;3.08;1.52;;;26.30;67.80;;;;;;4713787;30;20064;-79
2022/08/24 08:27:35;;;;;;;2.60;1.20;;;26.40;67.50;;;;;;4720198;30;20061;-79
2022/08/24 08:30:05;;;;;;;2.70;1.48;;;26.60;67.20;;;;;;4686800;30;20049;-79
2022/08/24 08:32:32;;;;;;;4.47;1.58;;;26.60;66.90;;;;;;4714773;30;20053;-79
2022/08/24 08:35:00;;;;;;;1.75;1.15;;;26.70;66.70;;;;;;4699665;30;20167;-79
2022/08/24 08:37:30;;;;;;;3.25;1.48;;;26.80;66.60;;;;;;4700948;30;20053;-79
2022/08/24 08:39:57;;;;;;;1.98;1.20;;;26.80;66.30;;;;;;4685935;30;20081;-78
2022/08/24 08:43:15;;;;;;;2.35;1.27;;;26.90;66.10;;;;;;4714096;30;20061;-78
2022/08/24 08:45:52;;;;;;;2.17;1.25;;;27.00;65.80;;;;;;4705304;30;20132;-78
2022/08/24 08:48:59;;;;;;;1.33;0.98;;;27.10;65.70;;;;;;4715703;30;20044;-78
2022/08/24 08:51:47;;;;;;;2.65;0.98;;;27.20;65.50;;;;;;4699292;30;20140;-78
2022/08/24 08:54:35;;;;;;;2.85;1.38;;;27.30;65.10;;;;;;4721317;30;20057;-80
2022/08/24 08:57:16;;;;;;;1.98;0.85;;;27.30;65.10;;;;;;4715187;30;20063;-79
2022/08/24 09:00:13;;;;;;;1.13;0.68;;;27.40;63.90;;;;;;4698238;30;20053;-79
2022/08/24 09:03:03;;;;;;;2.80;0.90;;;27.40;63.60;;;;;;4713752;30;20053;-79
2022/08/24 09:05:50;;;;;;;1.45;0.60;;;27.50;63.50;;;;;;4691510;30;20484;-79
2022/08/24 09:08:53;;;;;;;0.85;0.52;;;27.60;63.30;;;;;;4699899;30;20060;-80
2022/08/24 09:11:26;;;;;;;1.08;0.50;;;27.70;62.70;;;;;;4706444;30;20053;-79
2022/08/24 09:14:23;;;;;;;1.42;0.50;;;27.70;62.50;;;;;;4721501;30;20136;-79
2022/08/24 09:17:17;;;;;;;0.85;0.50;;;27.80;62.30;;;;;;4723155;30;20072;-78
2022/08/24 09:20:17;;;;;;;1.20;0.32;;;27.90;62.00;;;;;;4711496;30;20060;-79
2022/08/24 09:22:47;;;;;;;1.33;0.50;;;28.00;61.80;;;;;;4716245;30;20155;-79
2022/08/24 09:25:38;;;;;;;0.90;0.50;;;28.10;61.80;;;;;;4702490;30;20074;-79
2022/08/24 09:28:20;;;;;;;1.02;0.40;;;28.20;61.20;;;;;;4734617;30;20713;-79
2022/08/24 09:31:45;;;;;;;0.70;0.40;;;28.20;60.60;;;;;;4717332;30;20099;-79
2022/08/24 09:34:25;;;;;;;0.68;0.40;;;28.20;60.30;;;;;;4699607;30;20084;-78
2022/08/24 09:37:04;;;;;;;1.00;0.40;;;28.30;60.00;;;;;;4712681;30;20107;-79
2022/08/24 09:39:45;;;;;;;1.08;0.50;;;28.40;59.20;;;;;;4702317;30;20495;-78
2022/08/24 09:42:39;;;;;;;1.30;0.50;;;28.40;58.80;;;;;;4723434;30;20492;-79
2022/08/24 09:45:23;;;;;;;0.80;0.40;;;28.40;58.60;;;;;;4721882;30;20052;-79
2022/08/24 09:48:29;;;;;;;1.05;0.50;;;28.40;58.40;;;;;;4723013;30;20052;-79
2022/08/24 09:51:05;;;;;;;0.52;0.40;;;28.50;58.30;;;;;;4683486;30;20495;-79
2022/08/24 09:54:02;;;;;;;0.77;0.30;;;28.60;58.20;;;;;;4717161;30;20041;-79
2022/08/24 09:56:38;;;;;;;0.68;0.40;;;28.70;58.10;;;;;;4714436;30;20057;-79
2022/08/24 09:59:35;;;;;;;0.75;0.40;;;28.80;57.90;;;;;;4708318;30;20485;-79
2022/08/24 10:02:21;;;;;;;0.82;0.50;;;28.90;57.50;;;;;;4729757;30;20057;-79
2022/08/24 10:04:51;;;;;;;1.33;0.50;;;29.00;56.90;;;;;;4710866;30;20060;-79
2022/08/24 10:07:34;;;;;;;1.23;0.68;;;29.00;56.30;;;;;;4716807;30;20065;-79
2022/08/24 10:10:12;;;;;;;2.35;0.63;;;29.10;56.00;;;;;;4702224;30;20053;-79
2022/08/24 10:13:03;;;;;;;1.08;0.30;;;29.10;55.80;;;;;;4720247;30;20754;-78
2022/08/24 10:15:32;;;;;;;0.60;0.40;;;29.10;56.10;;;;;;4715262;30;20375;-80
2022/08/24 10:18:17;;;;;;;0.70;0.40;;;29.20;55.70;;;;;;4717241;30;20057;-88
2022/08/24 10:20:49;;;;;;;0.40;0.30;;;29.50;55.30;;;;;;4716581;30;20057;-87
2022/08/24 10:23:29;;;;;;;0.80;0.30;;;29.60;54.80;;;;;;4716594;30;20070;-82
2022/08/24 10:26:20;;;;;;;1.20;0.25;;;29.80;54.50;;;;;;4716247;30;20056;-82
2022/08/24 10:28:47;;;;;;;0.40;0.20;;;30.20;54.00;;;;;;4719230;30;20056;-82
2022/08/24 10:31:30;;;;;;;0.40;0.30;;;30.50;53.60;;;;;;4719755;30;20057;-82
2022/08/24 10:34:27;;;;;;;0.40;0.20;;;30.80;52.90;;;;;;4709596;30;20132;-82
2022/08/24 10:37:19;;;;;;;0.63;0.20;;;31.00;52.20;;;;;;4719195;30;20095;-81
2022/08/24 10:40:07;;;;;;;2.38;0.20;;;31.20;52.70;;;;;;4730551;30;20057;-82
2022/08/24 10:45:55;;;;;;;0.40;0.30;;;30.90;51.60;;;;;;4705426;30;20475;-82
2022/08/24 10:48:30;;;;;;;0.52;0.30;;;31.10;51.10;;;;;;4716787;30;20495;-82
2022/08/24 10:51:27;;;;;;;0.40;0.25;;;31.20;50.20;;;;;;4717354;30;20055;-82
2022/08/24 10:53:55;;;;;;;0.43;0.40;;;31.50;50.20;;;;;;4717059;30;20068;-82
2022/08/24 10:56:52;;;;;;;0.85;0.30;;;31.60;50.20;;;;;;4706727;30;20140;-82
2022/08/24 10:59:23;;;;;;;0.70;0.25;;;31.30;50.40;;;;;;4727417;30;20394;-83
2022/08/24 11:02:06;;;;;;;1.30;0.20;;;31.00;51.10;;;;;;4715965;30;20057;-82
2022/08/24 11:04:39;;;;;;;0.52;0.20;;;30.90;51.40;;;;;;4702128;30;20060;-83
2022/08/24 11:07:16;;;;;;;0.40;0.20;;;31.10;51.30;;;;;;4716708;30;20517;-85
2022/08/24 11:09:54;;;;;;;0.70;0.30;;;31.20;51.20;;;;;;4697270;30;20483;-81
2022/08/24 11:12:22;;;;;;;0.93;0.30;;;31.00;51.40;;;;;;4693353;30;20064;-82
2022/08/24 11:14:50;;;;;;;0.35;0.20;;;30.90;51.80;;;;;;4719463;30;20072;-84
2022/08/24 11:17:21;;;;;;;0.70;0.30;;;30.80;52.00;;;;;;4700293;30;20437;-83
2022/08/24 11:19:49;;;;;;;0.50;0.20;;;30.80;52.10;;;;;;4715687;30;20057;-81
2022/08/24 11:22:26;;;;;;;0.77;0.30;;;30.80;52.10;;;;;;4716819;30;20394;-83
2022/08/24 11:24:57;;;;;;;0.60;0.28;;;30.90;51.80;;;;;;4712384;30;20458;-83
2022/08/24 11:27:35;;;;;;;0.47;0.30;;;30.90;51.50;;;;;;4718156;30;20430;-83
2022/08/24 11:30:09;;;;;;;1.15;0.60;;;31.50;51.10;;;;;;4706716;30;20437;-81
2022/08/24 11:32:39;;;;;;;1.60;0.60;;;32.30;49.80;;;;;;4724648;30;20526;-84
2022/08/24 11:35:32;;;;;;;0.70;0.30;;;32.00;49.70;;;;;;4728143;30;20065;-80
2022/08/24 11:38:30;;;;;;;0.55;0.35;;;31.90;50.00;;;;;;4722260;30;20119;-81
2022/08/24 11:41:23;;;;;;;1.00;0.45;;;31.70;50.20;;;;;;4697876;30;20499;-81
2022/08/24 11:44:04;;;;;;;0.60;0.40;;;31.50;50.40;;;;;;4713625;30;20415;-81
2022/08/24 11:46:52;;;;;;;0.82;0.40;;;31.30;50.70;;;;;;4706173;30;20499;-80
2022/08/24 11:49:44;;;;;;;0.85;0.30;;;31.30;51.00;;;;;;4740734;30;20044;-79
2022/08/24 11:52:18;;;;;;;1.35;0.50;;;31.50;50.80;;;;;;4710769;30;20053;-79
2022/08/24 11:55:06;;;;;;;0.57;0.20;;;31.60;50.50;;;;;;4720332;30;20140;-80
2022/08/24 11:57:39;;;;;;;0.60;0.30;;;31.60;50.50;;;;;;4734811;30;20045;-84
2022/08/24 12:00:18;;;;;;;0.65;0.30;;;31.50;50.70;;;;;;4722363;30;20041;-80
2022/08/24 12:03:03;;;;;;;0.60;0.38;;;31.40;50.90;;;;;;4714913;30;20384;-81
2022/08/24 12:05:50;;;;;;;0.40;0.30;;;31.30;50.80;;;;;;4719981;30;20604;-83
2022/08/24 12:08:33;;;;;;;0.90;0.30;;;31.20;50.90;;;;;;4714712;30;20064;-83
2022/08/24 12:11:22;;;;;;;0.52;0.38;;;31.30;50.80;;;;;;4721076;30;20053;-82
2022/08/24 12:14:12;;;;;;;0.40;0.20;;;31.40;50.70;;;;;;4714529;30;20044;-82
2022/08/24 12:16:55;;;;;;;1.13;0.20;;;31.40;51.40;;;;;;4714759;30;20049;-81
2022/08/24 12:19:32;;;;;;;1.23;0.57;;;31.40;50.80;;;;;;4728593;30;20056;-82
2022/08/24 12:22:05;;;;;;;0.73;0.40;;;31.30;50.70;;;;;;4714183;30;20209;-81
2022/08/24 12:24:50;;;;;;;;;;;31.30;50.70;;;;;;4725064;30;20061;-82
2022/08/24 12:27:24;;;;;;;0.52;0.30;;;31.30;50.40;;;;;;4720307;30;19960;-82
2022/08/24 12:30:02;;;;;;;0.82;0.40;;;31.30;50.50;;;;;;4711835;30;20104;-84
2022/08/24 12:32:46;;;;;;;0.88;0.45;;;31.40;50.30;;;;;;4715565;30;20160;-82
2022/08/24 12:35:25;;;;;;;0.90;0.50;;;31.40;50.20;;;;;;4721253;30;20416;-82
2022/08/24 12:37:56;;;;;;;0.55;0.30;;;31.50;50.10;;;;;;4714688;30;20049;-84
2022/08/24 12:40:29;;;;;;;0.80;0.50;;;31.40;50.20;;;;;;4714747;30;20053;-79
2022/08/24 12:43:38;;;;;;;0.47;0.30;;;31.50;50.20;;;;;;4713099;30;20109;-80
2022/08/24 12:46:06;;;;;;;0.70;0.22;;;31.50;50.20;;;;;;4665030;30;20420;-81
2022/08/24 12:49:05;;;;;;;0.68;0.30;;;31.40;50.50;;;;;;4699687;30;20403;-82
2022/08/24 12:51:38;;;;;;;0.43;0.40;;;31.40;50.30;;;;;;4661172;30;20072;-87
2022/08/24 12:54:28;;;;;;;0.75;0.40;;;31.30;50.40;;;;;;4721061;30;20045;-82
2022/08/24 12:57:17;;;;;;;0.55;0.40;;;31.30;50.50;;;;;;4725498;30;20042;-83
2022/08/24 12:59:51;;;;;;;0.73;0.35;;;31.20;50.40;;;;;;4720548;30;20049;-81
2022/08/24 13:02:18;;;;;;;0.63;0.25;;;31.20;50.40;;;;;;4716716;30;20177;-82
2022/08/24 13:04:48;;;;;;;0.80;0.50;;;31.10;50.30;;;;;;4709287;30;20415;-82
2022/08/24 13:07:18;;;;;;;1.17;0.40;;;31.10;50.10;;;;;;4733689;30;20045;-83
2022/08/24 13:09:51;;;;;;;0.77;0.40;;;31.20;50.10;;;;;;4718960;30;20104;-82
2022/08/24 13:12:40;;;;;;;0.75;0.30;;;31.40;50.00;;;;;;4703156;30;20107;-82
2022/08/24 13:15:23;;;;;;;0.93;0.40;;;31.60;49.80;;;;;;4717810;30;20060;-81
2022/08/24 13:17:52;;;;;;;2.00;0.60;;;31.70;49.50;;;;;;4716923;30;20049;-82
2022/08/24 13:20:40;;;;;;;0.60;0.40;;;31.70;49.00;;;;;;4702808;30;20053;-81
2022/08/24 13:23:12;;;;;;;0.63;0.50;;;31.70;48.80;;;;;;4709027;30;20054;-81
2022/08/24 13:25:43;;;;;;;1.13;0.60;;;31.80;49.00;;;;;;4702913;30;20060;-86
2022/08/24 13:28:19;;;;;;;0.57;0.37;;;31.80;48.70;;;;;;4732135;30;20154;-82
2022/08/24 13:30:53;;;;;;;0.82;0.50;;;31.90;48.80;;;;;;4718568;30;20052;-82
2022/08/24 13:33:35;;;;;;;0.60;0.30;;;32.00;48.80;;;;;;4717373;30;20056;-83
2022/08/24 13:36:43;;;;;;;0.82;0.30;;;32.00;48.50;;;;;;4713435;30;20058;-83
2022/08/24 13:39:10;;;;;;;0.50;0.20;;;32.00;48.50;;;;;;4726890;30;20057;-83